createdAt,value
2022-09-05T00:00:53.353Z,1009.96
2022-09-05T00:03:53.619Z,1009.92
2022-09-05T00:06:53.351Z,1009.9
2022-09-05T00:09:53.350Z,1009.89
2022-09-05T00:13:07.347Z,1009.84
2022-09-05T00:15:53.375Z,1009.82
2022-09-05T00:21:10.514Z,1009.86
2022-09-05T00:24:24.435Z,1009.93
2022-09-05T00:27:53.355Z,1009.84
2022-09-05T00:31:06.435Z,1009.8
2022-09-05T00:33:53.357Z,1009.82
2022-09-05T00:36:53.360Z,1009.81
2022-09-05T00:40:05.504Z,1009.83
2022-09-05T00:42:53.362Z,1009.84
2022-09-05T00:45:53.360Z,1009.85
2022-09-05T00:48:53.367Z,1009.85
2022-09-05T00:51:53.363Z,1009.88
2022-09-05T00:54:53.369Z,1009.82
2022-09-05T00:57:53.367Z,1009.8
2022-09-05T01:00:53.369Z,1009.81
2022-09-05T01:03:53.359Z,1009.82
2022-09-05T01:06:53.361Z,1009.8
2022-09-05T01:09:53.366Z,1009.78
2022-09-05T01:12:53.398Z,1009.73
2022-09-05T01:15:53.407Z,1009.74
2022-09-05T01:18:53.365Z,1009.72
2022-09-05T01:21:53.365Z,1009.68
2022-09-05T01:24:53.357Z,1009.69
2022-09-05T01:28:30.976Z,1009.71
2022-09-05T01:30:53.475Z,1009.65
2022-09-05T01:33:53.372Z,1009.69
2022-09-05T01:36:53.379Z,1009.69
2022-09-05T01:40:12.777Z,1009.68
2022-09-05T01:42:53.365Z,1009.72
2022-09-05T01:45:53.403Z,1009.73
2022-09-05T01:48:53.364Z,1009.71
2022-09-05T01:51:53.366Z,1009.67
2022-09-05T01:54:53.363Z,1009.7
2022-09-05T01:57:53.383Z,1009.68
2022-09-05T02:00:53.378Z,1009.71
2022-09-05T02:03:53.382Z,1009.64
2022-09-05T02:06:53.383Z,1009.56
2022-09-05T02:09:53.375Z,1009.56
2022-09-05T02:12:56.802Z,1009.51
2022-09-05T02:15:59.630Z,1009.47
2022-09-05T02:18:53.379Z,1009.51
2022-09-05T02:21:55.935Z,1009.5
2022-09-05T02:24:53.378Z,1009.5
2022-09-05T02:28:05.328Z,1009.49
2022-09-05T02:31:01.570Z,1009.49
2022-09-05T02:33:53.384Z,1009.51
2022-09-05T02:36:53.382Z,1009.47
2022-09-05T02:43:51.846Z,1009.45
2022-09-05T02:45:15.729Z,1009.43
2022-09-05T02:45:53.468Z,1009.38
2022-09-05T02:48:53.383Z,1009.4
2022-09-05T02:55:19.920Z,1009.38
2022-09-05T02:57:32.393Z,1009.4
2022-09-05T02:58:06.740Z,1009.44
2022-09-05T03:00:53.528Z,1009.48
2022-09-05T03:03:53.387Z,1009.53
2022-09-05T03:06:53.383Z,1009.52
2022-09-05T03:09:53.391Z,1009.52
2022-09-05T03:12:53.385Z,1009.52
2022-09-05T03:15:53.383Z,1009.56
2022-09-05T03:18:53.390Z,1009.58
2022-09-05T03:21:53.389Z,1009.57
2022-09-05T03:24:55.761Z,1009.57
2022-09-05T03:27:53.394Z,1009.52
2022-09-05T03:30:53.419Z,1009.57
2022-09-05T03:33:54.240Z,1009.57
2022-09-05T03:36:53.402Z,1009.59
2022-09-05T03:39:53.445Z,1009.59
2022-09-05T03:42:53.391Z,1009.53
2022-09-05T03:45:53.434Z,1009.56
2022-09-05T03:48:53.395Z,1009.58
2022-09-05T03:54:45.827Z,1009.55
2022-09-05T03:57:21.910Z,1009.54
2022-09-05T03:57:53.399Z,1009.53
2022-09-05T04:00:53.431Z,1009.51
2022-09-05T04:07:03.624Z,1009.46
2022-09-05T04:08:12.515Z,1009.46
2022-09-05T04:09:53.506Z,1009.45
2022-09-05T04:12:53.396Z,1009.47
2022-09-05T04:15:54.534Z,1009.52
2022-09-05T04:18:53.398Z,1009.47
2022-09-05T04:21:53.397Z,1009.51
2022-09-05T04:24:53.400Z,1009.52
2022-09-05T04:27:53.400Z,1009.56
2022-09-05T04:30:53.400Z,1009.56
2022-09-05T04:33:53.397Z,1009.57
2022-09-05T04:36:53.403Z,1009.59
2022-09-05T04:39:53.458Z,1009.59
2022-09-05T04:42:53.403Z,1009.63
2022-09-05T04:45:53.500Z,1009.66
2022-09-05T04:48:53.410Z,1009.69
2022-09-05T04:52:00.052Z,1009.75
2022-09-05T04:54:53.408Z,1009.78
2022-09-05T04:57:53.405Z,1009.78
2022-09-05T05:04:26.113Z,1009.8
2022-09-05T05:06:06.824Z,1009.81
2022-09-05T05:06:53.480Z,1009.84
2022-09-05T05:10:01.902Z,1009.86
2022-09-05T05:16:29.893Z,1009.85
2022-09-05T05:18:05.335Z,1009.9
2022-09-05T05:19:01.414Z,1009.91
2022-09-05T05:21:53.406Z,1009.94
2022-09-05T05:24:53.413Z,1009.99
2022-09-05T05:27:53.407Z,1010.01
2022-09-05T05:30:53.989Z,1010.06
2022-09-05T05:33:53.409Z,1010.09
2022-09-05T05:36:56.249Z,1010.11
2022-09-05T05:39:53.508Z,1010.14
2022-09-05T05:42:53.411Z,1010.13
2022-09-05T05:45:53.490Z,1010.13
2022-09-05T05:48:55.151Z,1010.15
2022-09-05T05:52:01.888Z,1010.17
2022-09-05T05:55:07.372Z,1010.18
2022-09-05T05:57:53.412Z,1010.23
2022-09-05T06:00:53.413Z,1010.22
2022-09-05T06:03:53.520Z,1010.25
2022-09-05T06:06:53.417Z,1010.31
2022-09-05T06:14:07.866Z,1010.23
2022-09-05T06:14:54.106Z,1010.31
2022-09-05T06:15:53.420Z,1010.33
2022-09-05T06:18:53.415Z,1010.36
2022-09-05T06:22:08.189Z,1010.36
2022-09-05T06:24:53.530Z,1010.34
2022-09-05T06:28:02.274Z,1010.34
2022-09-05T06:30:57.111Z,1010.39
2022-09-05T06:33:53.540Z,1010.35
2022-09-05T06:36:53.550Z,1010.32
2022-09-05T06:39:53.593Z,1010.3
2022-09-05T06:42:53.551Z,1010.31
2022-09-05T06:45:58.794Z,1010.33
2022-09-05T06:49:01.388Z,1010.37
2022-09-05T06:52:02.650Z,1010.37
2022-09-05T06:54:54.547Z,1010.35
2022-09-05T06:57:53.552Z,1010.34
2022-09-05T07:00:53.605Z,1010.32
2022-09-05T07:03:53.532Z,1010.31
2022-09-05T07:07:01.424Z,1010.25
2022-09-05T07:09:53.532Z,1010.27
2022-09-05T07:12:53.530Z,1010.29
2022-09-05T07:15:53.580Z,1010.29
2022-09-05T07:18:53.549Z,1010.27
2022-09-05T07:21:53.545Z,1010.24
2022-09-05T07:24:55.584Z,1010.29
2022-09-05T07:28:27.231Z,1010.33
2022-09-05T07:30:53.540Z,1010.39
2022-09-05T07:33:53.559Z,1010.42
2022-09-05T07:36:59.221Z,1010.41
2022-09-05T07:39:53.578Z,1010.43
2022-09-05T07:42:57.330Z,1010.42
2022-09-05T07:45:55.407Z,1010.49
2022-09-05T07:48:53.549Z,1010.46
2022-09-05T07:53:59.196Z,1010.44
2022-09-05T07:56:48.320Z,1010.38
2022-09-05T07:57:53.789Z,1010.39
2022-09-05T08:00:53.612Z,1010.42
2022-09-05T08:03:53.555Z,1010.46
2022-09-05T08:07:34.353Z,1010.44
2022-09-05T08:10:07.184Z,1010.43
2022-09-05T08:13:23.325Z,1010.44
2022-09-05T08:16:00.777Z,1010.47
2022-09-05T08:18:53.565Z,1010.49
2022-09-05T08:21:53.557Z,1010.41
2022-09-05T08:24:53.564Z,1010.41
2022-09-05T08:27:53.555Z,1010.33
2022-09-05T08:30:53.560Z,1010.32
2022-09-05T08:33:53.559Z,1010.28
2022-09-05T08:36:53.552Z,1010.25
2022-09-05T08:39:54.291Z,1010.28
2022-09-05T08:43:38.055Z,1010.31
2022-09-05T08:46:38.252Z,1010.3
2022-09-05T08:48:53.559Z,1010.23
2022-09-05T08:51:54.095Z,1010.18
2022-09-05T08:54:58.344Z,1010.1
2022-09-05T08:57:53.560Z,1010.12
2022-09-05T09:00:55.657Z,1010.1
2022-09-05T09:03:53.584Z,1010.06
2022-09-05T09:06:58.038Z,1010
2022-09-05T09:09:53.577Z,1009.99
2022-09-05T09:12:53.581Z,1010.02
2022-09-05T09:15:53.670Z,1009.96
2022-09-05T09:18:53.571Z,1010
2022-09-05T09:21:53.571Z,1009.96
2022-09-05T09:25:15.652Z,1009.91
2022-09-05T09:28:16.217Z,1009.91
2022-09-05T09:30:53.574Z,1009.94
2022-09-05T09:33:53.569Z,1009.98
2022-09-05T09:36:53.578Z,1009.97
2022-09-05T09:39:53.618Z,1009.98
2022-09-05T09:42:53.577Z,1009.99
2022-09-05T09:45:53.576Z,1009.99
2022-09-05T09:48:53.596Z,1009.99
2022-09-05T09:51:53.581Z,1010
2022-09-05T09:54:53.573Z,1009.97
2022-09-05T09:57:53.579Z,1009.92
2022-09-05T10:00:53.576Z,1009.85
2022-09-05T10:05:22.455Z,1009.81
2022-09-05T10:10:37.428Z,1009.73
2022-09-05T10:10:37.702Z,1009.78
2022-09-05T10:12:55.214Z,1009.72
2022-09-05T10:15:53.633Z,1009.68
2022-09-05T10:18:53.579Z,1009.69
2022-09-05T10:24:53.580Z,1009.58
2022-09-05T10:27:53.586Z,1009.55
2022-09-05T10:31:18.320Z,1009.54
2022-09-05T10:35:12.223Z,1009.56
2022-09-05T10:36:53.574Z,1009.5
2022-09-05T10:39:53.660Z,1009.46
2022-09-05T10:43:01.078Z,1009.46
2022-09-05T10:45:53.586Z,1009.43
2022-09-05T10:48:53.751Z,1009.39
2022-09-05T10:51:53.591Z,1009.29
2022-09-05T10:54:56.042Z,1009.22
2022-09-05T10:57:53.583Z,1009.12
2022-09-05T11:02:19.692Z,1009.14
2022-09-05T11:03:53.692Z,1009.12
2022-09-05T11:06:53.592Z,1009.07
2022-09-05T11:09:54.679Z,1009.06
2022-09-05T11:12:57.558Z,1009.01
2022-09-05T11:16:04.070Z,1008.96
2022-09-05T11:18:54.788Z,1008.91
2022-09-05T11:22:04.362Z,1008.92
2022-09-05T11:24:53.583Z,1008.91
2022-09-05T11:27:53.587Z,1008.88
2022-09-05T11:30:53.713Z,1008.83
2022-09-05T11:36:13.394Z,1008.79
2022-09-05T11:40:01.895Z,1008.73
2022-09-05T11:42:53.598Z,1008.78
2022-09-05T11:45:53.615Z,1008.74
2022-09-05T11:48:53.841Z,1008.71
2022-09-05T11:51:53.584Z,1008.66
2022-09-05T11:54:53.582Z,1008.68
2022-09-05T11:57:53.581Z,1008.65
2022-09-05T12:01:38.281Z,1008.61
2022-09-05T12:03:58.287Z,1008.55
2022-09-05T12:06:53.588Z,1008.59
2022-09-05T12:09:53.653Z,1008.58
2022-09-05T12:12:53.593Z,1008.51
2022-09-05T12:16:07.994Z,1008.43
2022-09-05T12:18:53.583Z,1008.42
2022-09-05T12:21:53.595Z,1008.42
2022-09-05T12:25:15.297Z,1008.32
2022-09-05T12:28:00.073Z,1008.31
2022-09-05T12:31:12.014Z,1008.32
2022-09-05T12:35:44.123Z,1008.34
2022-09-05T12:38:57.050Z,1008.28
2022-09-05T12:40:57.224Z,1008.2
2022-09-05T12:42:54.914Z,1008.15
2022-09-05T12:48:53.594Z,1008.15
2022-09-05T12:51:53.597Z,1008.08
2022-09-05T12:54:56.833Z,1008.07
2022-09-05T12:59:52.542Z,1008.06
2022-09-05T13:03:09.991Z,1007.98
2022-09-05T13:04:16.441Z,1007.93
2022-09-05T13:06:53.615Z,1007.87
2022-09-05T13:11:05.107Z,1007.89
2022-09-05T13:14:51.031Z,1007.81
2022-09-05T13:15:53.675Z,1007.77
2022-09-05T13:18:53.609Z,1007.8
2022-09-05T13:21:53.618Z,1007.81
2022-09-05T13:24:53.612Z,1007.81
2022-09-05T13:27:53.605Z,1007.77
2022-09-05T13:31:34.883Z,1007.76
2022-09-05T13:37:57.375Z,1007.71
2022-09-05T13:37:57.637Z,1007.71
2022-09-05T13:39:53.681Z,1007.68
2022-09-05T13:42:53.609Z,1007.69
2022-09-05T13:45:53.646Z,1007.68
2022-09-05T13:49:25.590Z,1007.67
2022-09-05T13:51:53.607Z,1007.57
2022-09-05T13:54:53.745Z,1007.56
2022-09-05T13:57:53.609Z,1007.54
2022-09-05T14:00:53.663Z,1007.57
2022-09-05T14:03:53.702Z,1007.48
2022-09-05T14:06:53.669Z,1007.49
2022-09-05T14:09:53.615Z,1007.48
2022-09-05T14:13:00.449Z,1007.42
2022-09-05T14:15:53.607Z,1007.43
2022-09-05T14:18:53.618Z,1007.39
2022-09-05T14:21:53.614Z,1007.41
2022-09-05T14:24:58.216Z,1007.42
2022-09-05T14:27:53.608Z,1007.42
2022-09-05T14:31:46.211Z,1007.37
2022-09-05T14:37:38.564Z,1007.39
2022-09-05T14:37:57.541Z,1007.38
2022-09-05T14:39:53.636Z,1007.35
2022-09-05T14:42:53.614Z,1007.34
2022-09-05T14:45:53.620Z,1007.33
2022-09-05T14:48:53.682Z,1007.29
2022-09-05T14:51:53.609Z,1007.27
2022-09-05T14:55:20.875Z,1007.27
2022-09-05T15:01:13.374Z,1007.23
2022-09-05T15:01:16.142Z,1007.26
2022-09-05T15:06:53.618Z,1007.28
2022-09-05T15:11:25.015Z,1007.21
2022-09-05T15:12:56.386Z,1007.16
2022-09-05T15:15:57.534Z,1007.15
2022-09-05T15:18:53.625Z,1007.11
2022-09-05T15:21:53.632Z,1007.04
2022-09-05T15:24:53.618Z,1007
2022-09-05T15:27:53.624Z,1007.01
2022-09-05T15:30:53.664Z,1006.96
2022-09-05T15:33:53.622Z,1006.91
2022-09-05T15:36:53.631Z,1006.86
2022-09-05T15:39:53.702Z,1006.85
2022-09-05T15:42:55.010Z,1006.81
2022-09-05T15:45:53.692Z,1006.78
2022-09-05T15:48:53.632Z,1006.73
2022-09-05T15:51:53.642Z,1006.73
2022-09-05T15:54:53.643Z,1006.68
2022-09-05T15:57:53.642Z,1006.68
2022-09-05T16:00:53.693Z,1006.64
2022-09-05T16:03:56.616Z,1006.65
2022-09-05T16:10:32.135Z,1006.64
2022-09-05T16:10:44.448Z,1006.64
2022-09-05T16:12:53.641Z,1006.59
2022-09-05T16:16:50.154Z,1006.6
2022-09-05T16:23:21.370Z,1006.58
2022-09-05T16:23:21.917Z,1006.56
2022-09-05T16:24:58.825Z,1006.51
2022-09-05T16:27:53.644Z,1006.51
2022-09-05T16:30:53.643Z,1006.51
2022-09-05T16:33:53.640Z,1006.47
2022-09-05T16:36:56.402Z,1006.48
2022-09-05T16:39:53.703Z,1006.45
2022-09-05T16:42:53.644Z,1006.38
2022-09-05T16:45:53.696Z,1006.43
2022-09-05T16:48:55.035Z,1006.38
2022-09-05T16:51:53.636Z,1006.37
2022-09-05T16:54:53.640Z,1006.36
2022-09-05T16:57:53.640Z,1006.34
2022-09-05T17:00:53.704Z,1006.32
2022-09-05T17:03:53.633Z,1006.32
2022-09-05T17:06:53.634Z,1006.31
2022-09-05T17:09:53.637Z,1006.26
2022-09-05T17:12:53.644Z,1006.25
2022-09-05T17:15:53.636Z,1006.27
2022-09-05T17:18:53.632Z,1006.23
2022-09-05T17:23:02.854Z,1006.2
2022-09-05T17:28:50.053Z,1006.15
2022-09-05T17:29:37.288Z,1006.14
2022-09-05T17:33:53.642Z,1006.09
2022-09-05T17:36:53.639Z,1006.11
2022-09-05T17:39:53.679Z,1006.14
2022-09-05T17:42:53.646Z,1006.08
2022-09-05T17:45:53.715Z,1006.1
2022-09-05T17:49:17.815Z,1006.08
2022-09-05T17:51:53.645Z,1006.08
2022-09-05T17:54:53.650Z,1006.11
2022-09-05T17:57:53.655Z,1006.13
2022-09-05T18:00:53.691Z,1006.16
2022-09-05T18:03:53.652Z,1006.22
2022-09-05T18:07:00.129Z,1006.23
2022-09-05T18:09:53.653Z,1006.23
2022-09-05T18:13:12.237Z,1006.24
2022-09-05T18:15:53.652Z,1006.27
2022-09-05T18:19:29.483Z,1006.24
2022-09-05T18:21:53.649Z,1006.25
2022-09-05T18:24:53.660Z,1006.34
2022-09-05T18:28:03.954Z,1006.4
2022-09-05T18:30:53.669Z,1006.41
2022-09-05T18:33:56.794Z,1006.38
2022-09-05T18:36:53.649Z,1006.38
2022-09-05T18:39:53.706Z,1006.4
2022-09-05T18:42:53.658Z,1006.48
2022-09-05T18:45:53.721Z,1006.5
2022-09-05T18:49:35.369Z,1006.53
2022-09-05T18:51:53.656Z,1006.54
2022-09-05T18:56:09.529Z,1006.59
2022-09-05T18:57:54.060Z,1006.61
2022-09-05T19:00:53.694Z,1006.65
2022-09-05T19:03:53.675Z,1006.64
2022-09-05T19:06:53.667Z,1006.62
2022-09-05T19:09:53.661Z,1006.61
2022-09-05T19:12:53.875Z,1006.58
2022-09-05T19:15:53.677Z,1006.56
2022-09-05T19:18:53.671Z,1006.57
2022-09-05T19:21:56.330Z,1006.55
2022-09-05T19:24:53.676Z,1006.51
2022-09-05T19:29:36.343Z,1006.46
2022-09-05T19:36:47.635Z,1006.46
2022-09-05T19:37:18.293Z,1006.47
2022-09-05T19:37:25.808Z,1006.4
2022-09-05T19:41:31.807Z,1006.5
2022-09-05T19:46:17.103Z,1006.47
2022-09-05T19:47:45.809Z,1006.43
2022-09-05T19:48:53.663Z,1006.41
2022-09-05T19:51:53.667Z,1006.32
2022-09-05T19:54:53.678Z,1006.33
2022-09-05T19:58:18.665Z,1006.31
2022-09-05T20:00:53.975Z,1006.29
2022-09-05T20:03:53.672Z,1006.23
2022-09-05T20:06:53.675Z,1006.21
2022-09-05T20:09:53.681Z,1006.23
2022-09-05T20:12:53.675Z,1006.3
2022-09-05T20:15:53.731Z,1006.27
2022-09-05T20:18:53.671Z,1006.2
2022-09-05T20:21:56.844Z,1006.14
2022-09-05T20:24:53.674Z,1006.21
2022-09-05T20:27:53.663Z,1006.23
2022-09-05T20:30:53.746Z,1006.25
2022-09-05T20:33:53.684Z,1006.24
2022-09-05T20:41:30.629Z,1006.21
2022-09-05T20:43:14.185Z,1006.25
2022-09-05T20:43:26.065Z,1006.24
2022-09-05T20:46:22.723Z,1006.28
2022-09-05T20:50:47.100Z,1006.28
2022-09-05T20:54:23.840Z,1006.23
2022-09-05T20:54:53.712Z,1006.25
2022-09-05T20:57:53.692Z,1006.28
2022-09-05T21:01:20.710Z,1006.27
2022-09-05T21:03:53.691Z,1006.26
2022-09-05T21:06:53.687Z,1006.24
2022-09-05T21:09:53.690Z,1006.31
2022-09-05T21:12:53.680Z,1006.33
2022-09-05T21:15:54.325Z,1006.37
2022-09-05T21:18:53.676Z,1006.41
2022-09-05T21:21:53.688Z,1006.46
2022-09-05T21:24:53.694Z,1006.44
2022-09-05T21:27:53.680Z,1006.42
2022-09-05T21:30:53.739Z,1006.45
2022-09-05T21:33:57.505Z,1006.45
2022-09-05T21:36:54.161Z,1006.44
2022-09-05T21:39:59.041Z,1006.41
2022-09-05T21:45:18.112Z,1006.38
2022-09-05T21:47:36.860Z,1006.36
2022-09-05T21:48:54.239Z,1006.36
2022-09-05T21:51:53.690Z,1006.4
2022-09-05T21:59:15.697Z,1006.43
2022-09-05T21:59:16.017Z,1006.48
2022-09-05T22:00:53.705Z,1006.47
2022-09-05T22:03:53.703Z,1006.43
2022-09-05T22:06:53.692Z,1006.36
2022-09-05T22:09:53.691Z,1006.31
2022-09-05T22:12:53.700Z,1006.28
2022-09-05T22:15:53.718Z,1006.24
2022-09-05T22:18:53.684Z,1006.21
2022-09-05T22:21:53.694Z,1006.16
2022-09-05T22:24:53.694Z,1006.13
2022-09-05T22:27:53.688Z,1006.06
2022-09-05T22:30:53.731Z,1006.08
2022-09-05T22:33:53.677Z,1006.02
2022-09-05T22:36:53.681Z,1005.95
2022-09-05T22:39:53.730Z,1005.92
2022-09-05T22:42:53.693Z,1005.89
2022-09-05T22:45:53.747Z,1005.94
2022-09-05T22:48:53.690Z,1005.97
2022-09-05T22:51:53.690Z,1006.03
2022-09-05T22:54:53.701Z,1006.05
2022-09-05T22:57:53.692Z,1006.04
2022-09-05T23:00:53.683Z,1006.03
2022-09-05T23:03:53.716Z,1006
2022-09-05T23:06:53.685Z,1005.98
2022-09-05T23:09:53.686Z,1005.95
2022-09-05T23:12:53.692Z,1005.88
2022-09-05T23:15:53.755Z,1005.88
2022-09-05T23:18:53.690Z,1005.91
2022-09-05T23:21:53.710Z,1006.03
2022-09-05T23:24:53.688Z,1006.05
2022-09-05T23:27:53.687Z,1006.08
2022-09-05T23:30:53.746Z,1006.13
2022-09-05T23:33:53.688Z,1006.14
2022-09-05T23:36:53.692Z,1006.15
2022-09-05T23:39:53.726Z,1006.09
2022-09-05T23:42:53.685Z,1006.05
2022-09-05T23:45:53.741Z,1006.08
2022-09-05T23:48:53.694Z,1006.1
2022-09-05T23:51:53.689Z,1006.09
2022-09-05T23:54:53.687Z,1006.05
2022-09-05T23:57:53.689Z,1005.93
